Time;durP1;ratioP1;P1;durP2;ratioP2;P2;SDS_P1;SDS_P2;PMS_P1;PMS_P2;Temp;Humidity;BMP_temperature;BMP_pressure;BME280_temperature;BME280_humidity;BME280_pressure;Samples;Min_cycle;Max_cycle;Signal;HPM_P1;HPM_P2
2022/08/03 00:02:24;;;;;;;17.75;7.38;;;;;;;19.63;63.77;99537.97;5113324;28;20542;-61
2022/08/03 00:04:49;;;;;;;15.70;7.45;;;;;;;19.63;63.80;99543.25;5113894;28;20047;-60
2022/08/03 00:07:15;;;;;;;18.75;7.30;;;;;;;19.46;64.03;99517.28;5113620;28;20046;-61
2022/08/03 00:09:41;;;;;;;13.43;7.03;;;;;;;19.46;63.95;99517.28;5111831;28;20047;-60
2022/08/03 00:12:07;;;;;;;15.20;6.68;;;;;;;19.63;64.12;99540.63;5112748;28;20187;-62
2022/08/03 00:14:33;;;;;;;18.25;7.15;;;;;;;19.64;64.20;99544.94;5111717;28;20043;-60
2022/08/03 00:16:59;;;;;;;14.60;7.22;;;;;;;19.56;64.48;99542.03;5113219;28;20035;-61
2022/08/03 00:19:25;;;;;;;14.88;7.25;;;;;;;19.55;64.61;99548.25;5112804;28;20039;-61
2022/08/03 00:21:51;;;;;;;17.65;6.97;;;;;;;19.23;64.76;99486.47;5113178;28;20044;-61
2022/08/03 00:24:17;;;;;;;11.98;6.85;;;;;;;19.25;65.05;99500.38;5111967;28;20062;-61
2022/08/03 00:26:42;;;;;;;13.63;6.82;;;;;;;19.53;65.32;99554.59;5113826;28;20499;-61
2022/08/03 00:29:08;;;;;;;13.77;6.38;;;;;;;19.51;65.07;99557.34;5095663;28;20539;-61
2022/08/03 00:31:34;;;;;;;16.42;6.97;;;;;;;19.50;64.99;99558.31;5108855;28;20039;-62
2022/08/03 00:34:00;;;;;;;18.25;7.25;;;;;;;19.40;65.35;99537.00;5113058;28;20039;-62
2022/08/03 00:36:26;;;;;;;11.73;6.93;;;;;;;19.38;65.84;99545.97;5113299;28;20039;-62
2022/08/03 00:38:52;;;;;;;15.65;6.63;;;;;;;19.39;65.91;99558.22;5111757;28;20047;-61
2022/08/03 00:41:17;;;;;;;10.25;6.65;;;;;;;19.35;66.25;99548.84;5112908;28;20028;-63
2022/08/03 00:43:44;;;;;;;13.20;7.20;;;;;;;19.33;66.37;99556.00;5113135;28;20118;-62
2022/08/03 00:46:10;;;;;;;12.77;7.03;;;;;;;19.28;66.66;99548.44;5113065;28;20048;-61
2022/08/03 00:48:35;;;;;;;11.52;6.85;;;;;;;19.18;66.79;99542.16;5110881;28;20050;-61
2022/08/03 00:51:01;;;;;;;15.13;6.65;;;;;;;18.98;66.84;99511.13;5112790;28;20603;-60
2022/08/03 00:53:27;;;;;;;10.98;6.63;;;;;;;19.19;67.03;99543.84;5111481;28;20046;-61
2022/08/03 00:55:53;;;;;;;19.23;7.40;;;;;;;19.18;67.24;99560.59;5101735;28;20126;-61
2022/08/03 00:58:19;;;;;;;14.00;7.00;;;;;;;19.15;67.44;99546.81;5090899;28;20180;-61
2022/08/03 01:00:45;;;;;;;10.98;6.60;;;;;;;19.12;67.58;99549.66;5111163;28;20507;-61
2022/08/03 01:03:11;;;;;;;13.45;7.03;;;;;;;19.09;67.79;99542.81;5112064;28;20468;-61
2022/08/03 01:05:52;;;;;;;11.07;6.88;;;;;;;19.07;68.16;99543.84;5112788;28;20081;-62
2022/08/03 01:08:22;;;;;;;11.35;6.82;;;;;;;19.02;68.14;99546.81;5111570;28;20043;-61
2022/08/03 01:11:25;;;;;;;12.30;7.13;;;;;;;18.98;68.35;99538.31;5094589;28;20482;-63
2022/08/03 01:14:05;;;;;;;11.35;6.95;;;;;;;18.96;68.39;99542.00;5112370;28;20605;-63
2022/08/03 01:16:41;;;;;;;12.68;6.75;;;;;;;18.92;68.44;99540.53;5111123;28;20571;-61
2022/08/03 01:19:27;;;;;;;10.50;7.05;;;;;;;18.91;68.51;99536.19;5112175;27;20055;-61
2022/08/03 01:22:12;;;;;;;11.65;7.07;;;;;;;18.89;68.47;99538.13;5112011;28;20032;-60
2022/08/03 01:24:56;;;;;;;15.13;7.00;;;;;;;18.88;68.78;99544.34;5110655;28;20522;-62
2022/08/03 01:27:30;;;;;;;16.13;7.10;;;;;;;18.86;68.61;99551.50;5112290;28;20032;-62
2022/08/03 01:30:05;;;;;;;11.98;7.63;;;;;;;18.85;68.70;99542.75;5090711;28;20097;-62
2022/08/03 01:32:50;;;;;;;19.98;7.75;;;;;;;18.84;68.65;99540.25;5090564;28;20525;-62
2022/08/03 01:35:25;;;;;;;9.50;6.95;;;;;;;18.82;68.76;99542.97;5091509;28;20063;-62
2022/08/03 01:37:57;;;;;;;10.35;7.55;;;;;;;18.80;68.73;99539.59;5118966;27;20039;-62
2022/08/03 01:40:25;;;;;;;14.65;7.60;;;;;;;18.76;68.63;99547.81;5110671;28;20043;-62
2022/08/03 01:42:52;;;;;;;11.07;7.40;;;;;;;18.80;68.65;99557.19;5110050;28;20122;-62
2022/08/03 01:45:20;;;;;;;10.85;6.93;;;;;;;18.79;68.43;99550.25;5110865;28;20043;-62
2022/08/03 01:47:47;;;;;;;15.13;7.90;;;;;;;18.79;68.45;99553.72;5110633;28;20040;-62
2022/08/03 01:50:14;;;;;;;12.82;7.30;;;;;;;18.78;68.23;99549.41;5111568;28;20075;-62
2022/08/03 01:52:43;;;;;;;14.90;7.70;;;;;;;18.80;68.44;99552.75;5109916;28;20424;-61
2022/08/03 01:55:11;;;;;;;15.50;7.50;;;;;;;18.82;68.19;99558.78;5110613;28;20491;-62
2022/08/03 01:57:38;;;;;;;12.70;7.27;;;;;;;18.83;68.32;99562.25;5110272;28;20047;-62
2022/08/03 02:00:08;;;;;;;10.55;6.85;;;;;;;18.66;68.26;99526.56;5110114;28;20285;-61
2022/08/03 02:02:38;;;;;;;14.57;7.60;;;;;;;18.86;67.95;99554.97;5109806;28;20419;-62
2022/08/03 02:05:06;;;;;;;18.83;6.75;;;;;;;18.86;67.99;99543.59;5109823;28;20040;-62
2022/08/03 02:07:33;;;;;;;16.67;7.53;;;;;;;18.66;68.06;99521.28;5111259;28;20534;-62
2022/08/03 02:10:00;;;;;;;12.70;7.40;;;;;;;18.84;68.20;99548.16;5110260;28;20032;-62
2022/08/03 02:12:27;;;;;;;14.13;7.38;;;;;;;18.85;68.25;99553.28;5110024;27;20051;-62
2022/08/03 02:15:15;;;;;;;14.95;7.72;;;;;;;18.83;68.38;99554.34;5096303;28;20054;-62
2022/08/03 02:17:41;;;;;;;13.90;7.57;;;;;;;18.83;68.35;99557.84;5109786;28;20031;-62
2022/08/03 02:20:11;;;;;;;16.92;7.72;;;;;;;18.85;68.09;99553.28;5093189;28;20055;-62
2022/08/03 02:22:41;;;;;;;10.65;7.10;;;;;;;18.86;68.25;99557.59;5089175;28;20128;-61
2022/08/03 02:25:12;;;;;;;14.52;7.95;;;;;;;18.86;68.39;99564.66;5072693;28;20130;-61
2022/08/03 02:27:53;;;;;;;15.52;8.05;;;;;;;18.87;68.56;99567.19;5104872;28;20044;-61
2022/08/03 02:30:20;;;;;;;14.15;8.32;;;;;;;18.89;68.39;99560.00;5110183;28;20043;-62
2022/08/03 02:32:51;;;;;;;10.43;7.82;;;;;;;18.91;68.38;99567.81;5109709;28;20101;-62
2022/08/03 02:35:18;;;;;;;11.98;7.78;;;;;;;18.94;68.24;99572.88;5092645;28;20167;-62
2022/08/03 02:37:49;;;;;;;13.50;7.85;;;;;;;18.96;68.32;99570.97;5125191;27;20059;-62
2022/08/03 02:40:17;;;;;;;14.07;8.05;;;;;;;18.98;68.31;99562.03;5110561;28;20043;-62
2022/08/03 02:42:44;;;;;;;13.77;7.68;;;;;;;19.00;68.32;99573.28;5108144;28;20142;-62
2022/08/03 02:45:13;;;;;;;10.55;7.80;;;;;;;18.85;68.28;99537.47;5108347;28;20035;-62
2022/08/03 02:47:40;;;;;;;12.23;7.85;;;;;;;19.06;68.20;99569.38;5109255;28;20047;-61
2022/08/03 02:50:09;;;;;;;16.25;8.65;;;;;;;19.09;68.22;99573.59;5109234;28;20580;-62
2022/08/03 02:52:35;;;;;;;11.73;7.97;;;;;;;19.09;68.34;99571.81;5091993;28;20047;-62
2022/08/03 02:55:02;;;;;;;16.50;8.32;;;;;;;19.14;68.42;99569.69;5109607;28;20048;-62
2022/08/03 02:57:30;;;;;;;14.33;8.77;;;;;;;19.17;68.42;99579.16;5108900;28;20074;-62
2022/08/03 02:59:57;;;;;;;14.23;7.95;;;;;;;19.19;68.31;99578.09;5109392;28;20039;-62
2022/08/03 03:02:23;;;;;;;14.30;8.82;;;;;;;19.20;68.29;99579.78;5110654;28;20531;-62
2022/08/03 03:04:51;;;;;;;13.48;8.63;;;;;;;19.18;68.31;99573.78;5110772;28;20061;-62
2022/08/03 03:07:18;;;;;;;14.20;7.90;;;;;;;19.28;68.43;99587.97;5110375;28;20047;-62
2022/08/03 03:09:44;;;;;;;14.70;8.48;;;;;;;19.00;68.37;99528.47;5109087;28;20077;-63
2022/08/03 03:12:11;;;;;;;12.73;8.70;;;;;;;19.34;68.25;99577.00;5109927;28;20035;-62
2022/08/03 03:14:38;;;;;;;11.50;8.38;;;;;;;19.39;68.06;99577.50;5092621;28;20061;-62
2022/08/03 03:17:11;;;;;;;11.93;8.55;;;;;;;19.39;68.11;99574.03;5108871;28;20035;-62
2022/08/03 03:19:39;;;;;;;12.88;8.35;;;;;;;19.43;68.16;99578.13;5110155;28;20040;-62
2022/08/03 03:22:07;;;;;;;15.05;8.68;;;;;;;19.49;68.06;99588.25;5109147;28;20037;-62
2022/08/03 03:24:34;;;;;;;10.10;7.82;;;;;;;19.55;67.92;99592.25;5112671;28;20043;-61
2022/08/03 03:27:00;;;;;;;11.52;7.90;;;;;;;19.52;67.59;99579.28;5112764;28;20039;-62
2022/08/03 03:29:26;;;;;;;19.33;9.55;;;;;;;19.64;67.48;99591.56;5113047;28;20060;-62
2022/08/03 03:31:52;;;;;;;14.00;8.30;;;;;;;19.70;66.83;99585.84;5114479;28;20035;-61
2022/08/03 03:34:18;;;;;;;15.90;10.13;;;;;;;19.76;66.83;99594.16;5114655;28;20146;-63
2022/08/03 03:36:44;;;;;;;17.05;9.90;;;;;;;19.77;66.64;99581.81;5112607;28;20039;-61
2022/08/03 03:39:11;;;;;;;13.70;9.10;;;;;;;19.85;66.35;99592.63;5114052;28;20040;-63
2022/08/03 03:41:36;;;;;;;15.35;9.70;;;;;;;19.89;66.37;99594.09;5113150;28;20122;-63
2022/08/03 03:44:03;;;;;;;13.05;8.90;;;;;;;19.91;66.34;99597.47;5113195;28;20054;-62
2022/08/03 03:46:28;;;;;;;12.73;8.30;;;;;;;19.93;66.57;99595.56;5112952;28;20035;-61
2022/08/03 03:48:54;;;;;;;13.90;8.57;;;;;;;19.96;66.71;99591.84;5094354;28;20174;-61
2022/08/03 03:51:20;;;;;;;15.20;9.85;;;;;;;19.98;66.50;99592.59;5113851;28;20461;-61
2022/08/03 03:54:00;;;;;;;24.95;10.82;;;;;;;20.03;66.23;99591.28;5113778;28;20372;-62
2022/08/03 03:56:26;;;;;;;16.33;9.65;;;;;;;20.06;66.04;99588.41;5114202;28;20039;-62
2022/08/03 03:58:52;;;;;;;13.75;8.70;;;;;;;20.12;65.83;99600.31;5112376;28;20043;-62
2022/08/03 04:01:19;;;;;;;15.52;10.38;;;;;;;20.15;66.21;99598.25;5111811;28;20534;-62
2022/08/03 04:03:47;;;;;;;16.40;12.35;;;;;;;20.21;65.90;99596.97;5099096;28;20127;-62
2022/08/03 04:10:57;;;;;;;14.10;9.95;;;;;;;20.33;65.46;99605.78;5113776;28;20043;-61
2022/08/03 04:11:52;;;;;;;14.95;9.93;;;;;;;20.37;65.35;99607.25;5112381;28;20032;-61
2022/08/03 04:14:22;;;;;;;20.55;10.40;;;;;;;20.42;64.99;99611.22;5112408;28;20691;-61
2022/08/03 04:16:52;;;;;;;16.75;8.82;;;;;;;20.47;64.93;99609.06;5113735;28;20090;-62
2022/08/03 04:19:27;;;;;;;14.95;9.70;;;;;;;20.49;65.17;99611.59;5113126;28;20346;-62
2022/08/03 04:21:56;;;;;;;13.23;9.40;;;;;;;20.56;65.06;99618.09;5113166;28;20036;-61
2022/08/03 04:24:22;;;;;;;12.48;9.23;;;;;;;20.60;64.99;99616.91;5112274;28;20044;-62
2022/08/03 04:26:49;;;;;;;18.00;9.88;;;;;;;20.62;64.91;99615.00;5111883;28;20043;-62
2022/08/03 04:29:18;;;;;;;26.17;12.95;;;;;;;20.68;64.42;99614.50;5113517;28;20134;-62
2022/08/03 04:31:44;;;;;;;14.07;9.23;;;;;;;20.69;64.12;99606.47;5112393;28;20503;-62
2022/08/03 04:34:10;;;;;;;14.10;9.43;;;;;;;20.78;63.89;99609.38;5094481;28;20043;-62
2022/08/03 04:36:45;;;;;;;15.93;8.98;;;;;;;20.81;63.87;99609.13;5110808;28;20047;-63
2022/08/03 04:39:19;;;;;;;16.17;10.15;;;;;;;20.66;64.17;99575.00;5113285;28;20060;-62
2022/08/03 04:41:45;;;;;;;14.88;9.77;;;;;;;20.84;63.57;99615.00;5111140;28;20031;-61
2022/08/03 04:44:12;;;;;;;14.57;9.40;;;;;;;20.90;63.49;99609.25;5112688;27;20036;-62
2022/08/03 04:46:39;;;;;;;13.65;9.55;;;;;;;20.93;63.56;99616.97;5094858;28;20070;-62
2022/08/03 04:49:06;;;;;;;15.68;9.60;;;;;;;20.71;63.06;99572.84;5113152;28;20115;-62
2022/08/03 04:51:33;;;;;;;14.95;9.73;;;;;;;21.03;62.65;99609.97;5111382;28;20051;-62
2022/08/03 04:54:03;;;;;;;18.08;10.20;;;;;;;21.06;62.60;99616.81;5111455;28;20095;-62
2022/08/03 04:56:29;;;;;;;14.45;8.52;;;;;;;20.96;62.44;99597.34;5110827;28;20043;-61
2022/08/03 04:58:55;;;;;;;16.55;9.50;;;;;;;20.98;62.23;99588.38;5113070;28;20044;-61
2022/08/03 05:01:21;;;;;;;19.35;9.77;;;;;;;21.20;62.37;99621.06;5112488;28;20039;-62
2022/08/03 05:03:47;;;;;;;13.75;8.93;;;;;;;21.23;62.72;99619.00;5111427;28;20043;-62
2022/08/03 05:06:13;;;;;;;13.40;7.95;;;;;;;21.11;63.20;99604.91;5112777;28;20092;-62
2022/08/03 05:08:39;;;;;;;13.52;8.55;;;;;;;21.31;63.58;99628.97;5112382;28;20082;-62
2022/08/03 05:11:05;;;;;;;13.75;8.25;;;;;;;21.21;63.32;99594.47;5111933;28;20039;-62
2022/08/03 05:13:31;;;;;;;16.98;9.35;;;;;;;21.42;63.04;99618.38;5112723;28;20039;-62
2022/08/03 05:15:56;;;;;;;11.05;8.05;;;;;;;21.48;63.12;99613.44;5111240;28;20043;-62
2022/08/03 05:18:22;;;;;;;14.57;8.75;;;;;;;21.39;62.76;99592.19;5112413;28;20153;-61
2022/08/03 05:20:48;;;;;;;14.18;8.48;;;;;;;21.63;62.32;99624.59;5111845;28;20031;-61
2022/08/03 05:23:14;;;;;;;13.20;8.27;;;;;;;21.72;62.07;99621.19;5112074;27;20043;-62
2022/08/03 05:25:39;;;;;;;12.50;8.73;;;;;;;21.84;61.43;99622.84;5110678;28;20550;-61
2022/08/03 05:28:05;;;;;;;12.35;7.88;;;;;;;21.96;61.20;99634.28;5112111;28;20565;-63
2022/08/03 05:30:31;;;;;;;13.30;9.15;;;;;;;22.08;60.79;99627.97;5112058;28;20051;-62
2022/08/03 05:32:57;;;;;;;16.27;8.93;;;;;;;22.18;60.54;99618.31;5112086;28;20427;-62
2022/08/03 05:35:24;;;;;;;19.08;11.82;;;;;;;22.36;60.54;99621.22;5110840;28;20047;-63
2022/08/03 05:37:50;;;;;;;18.20;11.00;;;;;;;22.50;60.58;99626.22;5109988;28;20051;-62
2022/08/03 05:40:15;;;;;;;14.98;9.18;;;;;;;22.66;60.05;99631.84;5109881;28;20047;-62
2022/08/03 05:42:41;;;;;;;17.15;7.47;;;;;;;22.82;59.37;99634.06;5110929;28;20067;-63
2022/08/03 05:45:17;;;;;;;18.58;9.95;;;;;;;22.95;58.95;99636.53;5111004;28;20046;-63
2022/08/03 05:47:43;;;;;;;19.33;10.20;;;;;;;22.94;58.39;99609.16;5111017;28;20035;-64
2022/08/03 05:50:10;;;;;;;21.35;13.75;;;;;;;23.25;58.06;99631.19;5110952;28;20135;-63
2022/08/03 05:52:37;;;;;;;15.93;7.60;;;;;;;23.40;57.89;99637.81;5111770;28;20043;-63
2022/08/03 05:55:05;;;;;;;17.80;8.65;;;;;;;23.50;57.70;99625.44;5111621;28;20062;-62
2022/08/03 05:57:31;;;;;;;17.42;7.22;;;;;;;23.67;57.72;99623.09;5111773;28;20479;-63
2022/08/03 05:59:57;;;;;;;12.00;7.85;;;;;;;23.79;56.96;99632.63;5110940;28;20044;-62
2022/08/03 06:02:23;;;;;;;11.75;7.43;;;;;;;23.95;56.25;99635.59;5110391;28;20032;-62
2022/08/03 06:04:49;;;;;;;17.05;10.65;;;;;;;23.97;55.97;99605.25;5110816;28;20050;-62
2022/08/03 06:07:15;;;;;;;14.65;7.10;;;;;;;24.12;55.67;99612.81;5110790;28;20043;-63
2022/08/03 06:09:40;;;;;;;13.93;7.25;;;;;;;24.41;55.55;99635.75;5111340;27;20043;-61
2022/08/03 06:12:06;;;;;;;14.05;7.10;;;;;;;24.29;54.88;99588.19;5110643;28;20426;-61
2022/08/03 06:14:32;;;;;;;17.55;7.68;;;;;;;24.71;54.04;99634.72;5110003;28;20126;-62
2022/08/03 06:16:58;;;;;;;13.13;7.82;;;;;;;24.82;53.58;99618.59;5109400;28;20123;-62
2022/08/03 06:19:24;;;;;;;16.23;8.25;;;;;;;24.96;52.81;99611.16;5111340;28;20048;-62
2022/08/03 06:21:50;;;;;;;18.33;7.95;;;;;;;25.30;52.74;99629.06;5109854;28;20548;-62
2022/08/03 06:24:15;;;;;;;16.00;7.32;;;;;;;25.53;52.67;99628.69;5110842;27;20035;-62
2022/08/03 06:26:41;;;;;;;10.27;7.72;;;;;;;25.75;51.95;99641.59;5110774;28;20503;-62
2022/08/03 06:29:07;;;;;;;13.35;6.95;;;;;;;25.96;51.36;99638.66;5111153;28;20039;-62
2022/08/03 06:31:33;;;;;;;20.27;6.75;;;;;;;26.24;50.44;99642.09;5110156;28;20567;-63
2022/08/03 06:33:59;;;;;;;13.52;6.60;;;;;;;26.68;49.20;99632.28;5110998;28;20071;-63
2022/08/03 06:36:30;;;;;;;12.18;6.75;;;;;;;27.43;47.81;99626.19;5110614;28;20458;-62
2022/08/03 06:38:59;;;;;;;10.07;6.65;;;;;;;28.45;45.60;99613.38;5110801;28;20035;-62
2022/08/03 06:41:25;;;;;;;15.40;6.18;;;;;;;29.66;43.12;99647.03;5109817;28;20032;-62
2022/08/03 06:43:51;;;;;;;8.98;5.38;;;;;;;30.65;40.24;99640.84;5110612;28;20070;-63
2022/08/03 06:46:19;;;;;;;10.18;5.28;;;;;;;31.59;38.61;99623.19;5110913;28;20043;-64
2022/08/03 06:48:45;;;;;;;9.85;4.85;;;;;;;32.70;36.61;99645.03;5110882;28;20537;-60
2022/08/03 06:51:11;;;;;;;7.72;4.35;;;;;;;33.59;35.02;99644.09;5109140;28;20059;-63
2022/08/03 06:53:37;;;;;;;7.75;4.68;;;;;;;34.25;33.05;99619.19;5109528;28;20051;-63
2022/08/03 06:56:04;;;;;;;6.95;4.22;;;;;;;35.30;31.58;99645.28;5110177;28;20604;-64
2022/08/03 06:58:30;;;;;;;8.18;4.50;;;;;;;36.21;30.59;99641.34;5108999;28;20067;-63
2022/08/03 07:00:56;;;;;;;9.38;4.22;;;;;;;37.09;29.08;99655.59;5109323;28;20077;-63
2022/08/03 07:03:21;;;;;;;7.43;4.03;;;;;;;37.63;28.03;99634.97;5106958;28;20039;-62
2022/08/03 07:05:48;;;;;;;5.90;3.63;;;;;;;38.50;26.54;99663.38;5108329;28;20063;-62
2022/08/03 07:08:14;;;;;;;10.02;4.70;;;;;;;39.35;25.07;99656.41;5109908;28;20058;-62
2022/08/03 07:10:39;;;;;;;5.95;4.07;;;;;;;39.84;24.41;99656.84;5109409;28;20150;-65
2022/08/03 07:13:05;;;;;;;5.70;3.90;;;;;;;40.32;23.46;99661.00;5106817;28;20403;-63
2022/08/03 07:15:31;;;;;;;12.98;4.40;;;;;;;40.10;23.13;99664.41;5108918;28;20498;-62
2022/08/03 07:17:57;;;;;;;4.40;3.90;;;;;;;40.49;22.63;99661.84;5108495;28;20411;-64
2022/08/03 07:20:23;;;;;;;5.28;4.13;;;;;;;40.30;22.20;99661.28;5109461;28;20107;-63
2022/08/03 07:22:49;;;;;;;8.93;4.80;;;;;;;41.08;21.68;99662.25;5104840;28;20035;-65
2022/08/03 07:25:14;;;;;;;6.43;4.25;;;;;;;41.82;21.11;99658.03;5107362;28;20123;-61
2022/08/03 07:27:44;;;;;;;7.18;4.68;;;;;;;42.66;20.63;99663.72;5102553;28;20435;-59
2022/08/03 07:30:11;;;;;;;7.50;4.22;;;;;;;43.43;19.79;99666.69;5103332;28;20040;-62
2022/08/03 07:32:37;;;;;;;4.47;3.85;;;;;;;43.41;18.79;99663.41;5083759;28;20043;-57
2022/08/03 07:35:03;;;;;;;10.40;4.15;;;;;;;43.28;19.01;99668.56;5101935;28;20464;-58
2022/08/03 07:37:30;;;;;;;5.05;3.90;;;;;;;43.94;18.72;99666.06;5084146;28;20047;-59
2022/08/03 07:39:56;;;;;;;7.22;3.70;;;;;;;44.58;18.32;99659.00;5118476;28;20505;-64
2022/08/03 07:42:22;;;;;;;9.43;4.17;;;;;;;44.48;17.13;99664.50;5099813;28;20036;-63
2022/08/03 07:44:48;;;;;;;4.45;4.05;;;;;;;43.31;17.21;99660.63;5100422;28;20598;-60
2022/08/03 07:47:19;;;;;;;4.85;4.10;;;;;;;43.66;17.46;99657.19;5082903;28;20050;-62
2022/08/03 07:49:45;;;;;;;4.10;3.70;;;;;;;44.27;16.58;99665.59;5101674;28;20146;-64
2022/08/03 07:54:55;;;;;;;12.98;4.05;;;;;;;44.18;16.92;99659.78;5102223;28;20045;-61
2022/08/03 07:57:21;;;;;;;4.30;3.25;;;;;;;43.84;17.09;99662.19;5100258;28;20901;-61
2022/08/03 07:59:46;;;;;;;3.40;2.85;;;;;;;42.85;17.83;99655.97;5101074;28;20047;-50
2022/08/03 08:02:13;;;;;;;4.93;2.95;;;;;;;40.92;19.79;99658.47;5100431;28;20053;-59
2022/08/03 08:04:39;;;;;;;8.35;3.70;;;;;;;40.35;20.70;99650.47;5103932;28;20052;-63
2022/08/03 08:07:05;;;;;;;4.57;3.70;;;;;;;41.38;19.39;99663.47;5103741;28;20035;-58
2022/08/03 08:09:31;;;;;;;4.85;3.25;;;;;;;42.34;18.97;99660.22;5104740;28;20085;-62
2022/08/03 08:11:57;;;;;;;8.00;3.88;;;;;;;42.95;18.32;99659.59;5105125;28;20038;-61
2022/08/03 08:14:22;;;;;;;4.85;3.60;;;;;;;42.63;18.60;99656.06;5106341;28;20043;-62
2022/08/03 08:16:48;;;;;;;6.43;4.00;;;;;;;42.57;18.49;99663.41;5107478;28;20035;-61
2022/08/03 08:19:15;;;;;;;5.72;3.95;;;;;;;42.84;18.26;99663.34;5104589;28;20050;-60
2022/08/03 08:21:42;;;;;;;4.40;4.00;;;;;;;43.21;17.76;99657.84;5109730;28;20043;-60
2022/08/03 08:24:08;;;;;;;8.20;6.88;;;;;;;43.79;17.34;99658.63;5110363;28;20560;-61
2022/08/03 08:26:34;;;;;;;4.15;3.72;;;;;;;44.44;16.82;99655.16;5111657;28;20028;-63
2022/08/03 08:28:59;;;;;;;9.20;6.65;;;;;;;45.03;16.46;99657.28;5109472;28;20040;-61
2022/08/03 08:31:25;;;;;;;7.60;6.90;;;;;;;45.45;15.95;99657.72;5101930;28;20032;-61
2022/08/03 08:33:51;;;;;;;8.68;4.88;;;;;;;45.76;15.35;99638.31;5109714;28;20042;-63
2022/08/03 08:36:17;;;;;;;4.78;4.25;;;;;;;44.84;14.67;99631.56;5107565;28;20120;-61
2022/08/03 08:38:43;;;;;;;7.43;4.45;;;;;;;44.82;14.91;99658.44;5089382;28;20043;-58
2022/08/03 08:41:13;;;;;;;4.67;4.27;;;;;;;44.72;15.28;99659.28;5109632;28;20039;-56
2022/08/03 08:43:40;;;;;;;5.78;4.88;;;;;;;43.29;16.28;99662.78;5107515;28;20047;-55
2022/08/03 08:46:07;;;;;;;4.80;4.40;;;;;;;42.86;16.44;99628.34;5107385;28;20043;-68
2022/08/03 08:48:35;;;;;;;7.73;4.63;;;;;;;43.54;16.08;99655.81;5084417;28;20050;-61
2022/08/03 08:51:01;;;;;;;5.20;4.20;;;;;;;44.39;15.99;99649.69;5100983;28;20059;-61
2022/08/03 08:53:28;;;;;;;4.57;4.13;;;;;;;45.27;15.36;99654.78;5110464;28;20039;-62
2022/08/03 08:55:58;;;;;;;6.45;4.40;;;;;;;46.06;14.95;99646.41;5109700;28;20051;-57
2022/08/03 08:58:25;;;;;;;7.88;5.63;;;;;;;46.64;14.54;99636.31;5100867;28;20127;-58
2022/08/03 09:00:51;;;;;;;;;;;;;;;47.30;14.25;99662.34;5083430;28;20596;-59
2022/08/03 09:03:17;;;;;;;4.47;4.17;;;;;;;47.53;14.25;99650.44;5111750;28;19915;-56
2022/08/03 09:05:43;;;;;;;7.28;6.57;;;;;;;47.97;13.76;99656.44;5110544;28;20047;-57
2022/08/03 09:08:09;;;;;;;6.90;5.18;;;;;;;48.19;13.38;99652.28;5110951;28;20510;-58
2022/08/03 09:10:35;;;;;;;5.13;4.73;;;;;;;48.59;13.36;99661.81;5111941;28;20077;-56
2022/08/03 09:13:01;;;;;;;5.37;4.50;;;;;;;48.74;13.06;99640.28;5111808;28;20968;-59
2022/08/03 09:15:32;;;;;;;6.43;5.45;;;;;;;48.70;13.45;99655.84;5110658;28;20052;-57
2022/08/03 09:18:00;;;;;;;8.57;6.20;;;;;;;49.13;12.91;99656.41;5110584;28;20048;-56
2022/08/03 09:20:31;;;;;;;6.97;6.22;;;;;;;49.26;12.68;99660.28;5104964;28;20495;-58
2022/08/03 09:23:03;;;;;;;6.18;5.63;;;;;;;49.52;12.22;99660.56;5106729;28;20035;-62
2022/08/03 09:25:33;;;;;;;4.80;4.32;;;;;;;49.49;12.58;99659.25;5115323;27;20097;-59
2022/08/03 09:28:05;;;;;;;5.93;4.18;;;;;;;47.06;13.80;99656.81;5104962;28;20112;-61
2022/08/03 09:30:31;;;;;;;6.18;3.47;;;;;;;44.66;15.49;99649.41;5103124;28;20059;-61
2022/08/03 09:33:01;;;;;;;5.78;4.75;;;;;;;43.39;15.94;99642.88;5100049;28;20040;-58
2022/08/03 09:35:27;;;;;;;6.20;5.60;;;;;;;44.66;15.08;99641.19;5105776;28;20039;-60
2022/08/03 09:38:13;;;;;;;4.30;3.90;;;;;;;45.76;14.64;99650.16;5106394;27;20096;-60
2022/08/03 09:40:39;;;;;;;14.65;10.93;;;;;;;46.49;14.41;99655.69;5105366;27;20047;-59
2022/08/03 09:43:08;;;;;;;11.23;7.03;;;;;;;47.23;13.55;99659.09;5101360;28;20032;-56
2022/08/03 09:45:35;;;;;;;12.75;7.18;;;;;;;47.75;13.48;99642.44;5100286;28;20048;-58
2022/08/03 09:48:23;;;;;;;9.85;6.28;;;;;;;47.73;13.35;99660.41;5096266;28;20031;-61
2022/08/03 09:50:57;;;;;;;6.97;6.00;;;;;;;47.18;13.56;99657.22;5096856;27;20056;-58
2022/08/03 09:53:23;;;;;;;7.97;5.90;;;;;;;47.49;13.55;99636.44;5080063;28;20400;-58
2022/08/03 09:55:54;;;;;;;6.70;6.00;;;;;;;47.76;13.67;99646.03;5082865;28;20044;-64
2022/08/03 09:58:20;;;;;;;7.13;4.65;;;;;;;46.24;13.92;99644.91;5106747;28;20823;-59
2022/08/03 10:00:53;;;;;;;5.45;3.97;;;;;;;43.47;15.80;99632.19;5101612;28;20538;-58
2022/08/03 10:03:20;;;;;;;5.95;3.95;;;;;;;41.97;16.73;99621.84;5098140;28;20032;-58
2022/08/03 10:05:45;;;;;;;8.18;4.28;;;;;;;40.68;18.39;99627.81;5099907;28;20043;-59
2022/08/03 10:08:16;;;;;;;9.40;4.43;;;;;;;40.92;18.42;99603.91;5097266;28;20460;-59
2022/08/03 10:10:43;;;;;;;4.70;4.18;;;;;;;41.63;18.34;99626.66;5103178;28;20039;-40
2022/08/03 10:13:18;;;;;;;14.88;6.15;;;;;;;42.78;17.31;99638.94;5109568;27;20054;-44
2022/08/03 10:15:45;;;;;;;5.43;4.72;;;;;;;43.92;16.52;99634.28;5081131;28;20584;-45
2022/08/03 10:18:11;;;;;;;6.65;5.35;;;;;;;43.00;17.20;99615.00;5100301;28;20067;-41
2022/08/03 10:20:44;;;;;;;7.37;6.30;;;;;;;43.97;16.60;99635.41;5107979;28;20051;-44
2022/08/03 10:23:11;;;;;;;8.75;6.50;;;;;;;44.80;16.21;99633.22;5112214;27;20054;-46
2022/08/03 10:25:37;;;;;;;7.60;4.78;;;;;;;45.03;15.69;99635.31;5107649;28;20054;-43
2022/08/03 10:28:03;;;;;;;6.10;5.50;;;;;;;45.44;15.13;99642.34;5108904;28;20031;-41
2022/08/03 10:30:31;;;;;;;6.43;5.82;;;;;;;45.82;14.82;99639.97;5109173;28;20081;-42
2022/08/03 10:33:04;;;;;;;6.00;5.38;;;;;;;46.25;14.59;99644.63;5091842;28;20423;-41
2022/08/03 10:35:30;;;;;;;8.40;6.10;;;;;;;46.66;14.05;99641.53;5102115;28;20048;-41
2022/08/03 10:38:01;;;;;;;10.90;5.88;;;;;;;47.01;14.14;99651.34;5084094;28;20035;-41
2022/08/03 10:40:30;;;;;;;8.52;5.55;;;;;;;46.12;14.69;99644.41;5100901;28;20216;-44
2022/08/03 10:43:04;;;;;;;6.72;6.13;;;;;;;46.03;14.78;99644.22;5100226;28;20040;-44
2022/08/03 10:45:30;;;;;;;7.90;7.10;;;;;;;46.33;14.42;99648.69;5100196;28;20043;-42
2022/08/03 10:47:56;;;;;;;6.25;4.50;;;;;;;46.03;14.47;99651.66;5104023;28;20093;-44
2022/08/03 10:50:24;;;;;;;8.57;5.75;;;;;;;45.68;14.29;99641.69;5095785;28;20523;-41
2022/08/03 10:52:54;;;;;;;10.38;4.72;;;;;;;43.86;15.40;99613.41;5093040;28;20139;-43
2022/08/03 10:58:35;;;;;;;6.30;5.80;;;;;;;43.40;16.08;99630.78;5078969;28;20052;-43
2022/08/03 11:01:00;;;;;;;7.22;5.32;;;;;;;44.49;15.28;99641.44;5096301;28;20151;-42
2022/08/03 11:03:26;;;;;;;7.05;5.10;;;;;;;45.26;14.92;99637.47;5094387;28;20129;-44
2022/08/03 11:05:54;;;;;;;11.95;6.45;;;;;;;45.82;14.54;99631.72;5100215;28;20036;-44
2022/08/03 11:08:22;;;;;;;9.88;6.00;;;;;;;46.47;14.17;99652.44;5106673;28;20126;-44
2022/08/03 11:10:51;;;;;;;12.35;6.15;;;;;;;46.53;14.13;99643.00;5099990;28;20115;-43
2022/08/03 11:13:19;;;;;;;7.68;5.57;;;;;;;46.24;14.35;99642.16;5104100;28;20157;-43
2022/08/03 11:15:47;;;;;;;8.60;7.78;;;;;;;46.40;14.21;99640.91;5105328;28;20035;-45
2022/08/03 11:18:13;;;;;;;6.72;5.07;;;;;;;46.22;14.10;99612.19;5100740;28;20656;-43
2022/08/03 11:20:47;;;;;;;7.32;5.35;;;;;;;46.18;14.76;99638.63;5095409;28;20127;-42
2022/08/03 11:23:14;;;;;;;12.00;6.38;;;;;;;46.44;14.42;99621.91;5098418;28;20035;-45
2022/08/03 11:26:08;;;;;;;25.27;12.43;;;;;;;45.90;14.93;99633.88;5099820;28;20050;-42
2022/08/03 11:28:34;;;;;;;15.02;7.05;;;;;;;46.18;14.52;99635.06;5099713;28;20039;-45
2022/08/03 11:31:32;;;;;;;13.70;8.10;;;;;;;46.85;14.22;99644.38;5097325;28;20134;-43
2022/08/03 11:34:08;;;;;;;7.65;6.30;;;;;;;47.11;13.39;99643.00;5086792;28;20152;-42
2022/08/03 11:37:12;;;;;;;4.88;4.40;;;;;;;47.36;13.22;99641.88;5096153;28;20179;-56
2022/08/03 11:39:44;;;;;;;3.53;3.22;;;;;;;47.46;13.54;99644.50;5095366;28;20035;-53
2022/08/03 11:42:22;;;;;;;5.68;4.10;;;;;;;47.75;13.48;99638.88;5099129;28;20039;-54
2022/08/03 11:44:59;;;;;;;8.65;5.25;;;;;;;47.57;13.70;99646.00;5097903;28;20043;-53